Vue régionale

METAR et TAF

Samedi 17 novembre 2018 à 04h05

Visibilités horizontales observées à différents aéroports. Les observations (METAR) et prévisions aéronautiques (TAF) complètes sont disponibles en cliquant sur l’icône correspondante.

  • Luxemburg (ELLX)

    Taf: TAF ELLX 162300Z 1700/1806 06010KT CAVOK PROB30 1704/1708 5000 BR TEMPO 1708/1716 08015G25KT=

    Metar: METAR ELLX 170220Z AUTO 06011KT 9999 NCD 02/00 Q1026 NOSIG=

  • Spangdahlem (ETAD)

    Taf: TAF ETAD 162055Z 1621/1803 08006KT 9999 SKC QNH3031INS BECMG 1708/1709 07010G20KT 9999 NSW SCT010 QNH3035INS BECMG 1714/1715 07006KT 9999 SKC QNH3031INS TX07/1714Z TN02/1706Z LAST NO AMDS AFT 1621=

    Metar: METAR ETAD 170156Z AUTO 07010KT 9999 CLR 02/00 A3033 RMK AO2 SLP272 T00231001 $=

  • Metz/Nancy (LFJL)

    Taf: TAF LFJL 162300Z 1700/1724 07010KT CAVOK TEMPO 1711/1720 07015G25KT=

    Metar: METAR LFJL 170230Z AUTO 05007KT 8000 NSC 01/00 Q1025 NOSIG=

  • Saarbrücken/Intl (EDDR)

    Taf: TAF EDDR 162300Z 1700/1724 04010KT CAVOK TEMPO 1706/1718 05015G25KT=

    Metar: METAR EDDR 170250Z 04008KT CAVOK 02/M00 Q1025=

  • Hahn (EDFH)

    Taf: TAF EDFH 162300Z 1700/1724 11012KT CAVOK TEMPO 1702/1724 11015G25KT PROB30 TEMPO 1710/1720 10020G35KT=

    Metar: METAR EDFH 170220Z 09008KT 060V140 CAVOK 02/M00 Q1026=

  • Ramstein (ETAR)

    Taf: TAF ETAR 170157Z 1702/1808 06009KT 9999 FEW020 QNH3032INS BECMG 1709/1710 06010G20KT 9999 SKC QNH3030INS BECMG 1713/1714 06015KT 9999 SKC QNH3029INS BECMG 1721/1722 06015KT 9999 FEW012 FEW030 QNH3027INS TX07/1714Z TNM04/1802Z=

    Metar: nil

  • Nancy/Ochey (LFSO)

    Taf: TAF LFSO 170200Z NIL=

    Metar: METAR LFSO 170230Z AUTO 06004KT CAVOK 02/01 Q1024=

  • Liège Bierset (EBLG)

    Taf: TAF EBLG 162300Z 1700/1806 09005KT CAVOK PROB30 TEMPO 1700/1706 4000 BR=

    Metar: METAR EBLG 170220Z VRB02KT CAVOK 03/M01 Q1027 NOSIG=

  • Saint-Dizier (LFSI)

    Taf: TAF LFSI 170200Z 1703/1803 VRB02KT 7000 NSC TEMPO 1703/1708 0200 BCFG BECMG 1708/1710 09010KT TEMPO 1717/1721 09015G25KT=

    Metar: METAR LFSI 170230Z AUTO 02001KT 4300 0800 R11/1100U BCFG NSC M02/M03 Q1025=

  • Maastricht/Zuid Limburg (EHBK)

    Taf: TAF EHBK 162314Z 1700/1806 09010KT CAVOK=

    Metar: METAR EHBK 170225Z AUTO 06008KT 9999 NCD 02/01 Q1028=

  • Köln/Köln-Bonn (EDDK)

    Taf: TAF EDDK 162300Z 1700/1806 11005KT CAVOK BECMG 1708/1711 10010KT BECMG 1715/1718 10005KT=

    Metar: METAR EDDK 170250Z VRB02KT CAVOK 03/M00 Q1029 NOSIG=

  • Charleroi (EBCI)

    Taf: TAF EBCI 162300Z 1700/1806 08005KT CAVOK PROB30 TEMPO 1702/1707 4000 BR=

    Metar: METAR COR EBCI 170220Z 06005KT CAVOK 02/M00 Q1027 NOSIG=

  • Wiesbaden (ETOU)

    Taf: TAF ETOU 162002Z 1620/1802 06009KT 9999 FEW020 QNH3037INS BECMG 1708/1709 06010G15KT 9999 FEW030 QNH3034INS TEMPO 1709/1713 07015G25KT BECMG 1715/1716 06009KT 9999 FEW025 QNH3037INS TX11/1712Z TN01/1705Z=

    Metar: METAR ETOU 170156Z AUTO 05006KT 9999 CLR 04/M05 A3040 RMK AO2 SLP301 T00441051 $=

  • Karlsruhe/Baden-Baden (EDSB)

    Taf: TAF AMD EDSB 162353Z 1623/1718 CNL=

    Metar: METAR EDSB 170220Z AUTO 03013KT 9999 NCD 03/01 Q1026=

  • Chalons/Vatry (LFOK)

    Taf: TAF LFOK 162300Z 1700/1724 03005KT 0200 FG VV/// BECMG 1702/1705 3000 BR NSC BECMG 1705/1708 CAVOK=

    Metar: METAR LFOK 170230Z AUTO 04006KT 5000 BR NSC M00/M00 Q1025 NOSIG=

  • Brüssel (EBBR)

    Taf: TAF EBBR 162300Z 1700/1806 08005KT 0300 FG BKN001 BECMG 1701/1703 8000 NSW NSC=

    Metar: METAR COR EBBR 170220Z 00000KT 4000 0500N R25L/1600D R25R/0700N R01/0750N BCFG NSC M01/M02 Q1028 NOSIG=

  • Düsseldorf (EDDL)

    Taf: TAF EDDL 162300Z 1700/1806 VRB03KT CAVOK BECMG 1703/1706 08005KT BECMG 1708/1711 07010KT BECMG 1718/1721 07005KT=

    Metar: METAR EDDL 170250Z 06004KT CAVOK M01/M02 Q1030 NOSIG=

  • Luxeuil (LFSX)

    Taf: TAF LFSX 170200Z NIL=

    Metar: METAR LFSX 170230Z AUTO VRB02KT 9999 BKN017 02/01 Q1024=

  • Eindhoven (EHEH)

    Taf: TAF EHEH 170000Z NIL=

    Metar: METAR EHEH 170225Z AUTO 08007KT 9999 NCD 05/01 Q1029 BLU=

  • Niederrhein (EDLV)

    Taf: TAF COR EDLV 162350Z 1700/1724 CNL=

    Metar: METAR EDLV 170220Z NIL=

  • Dortmund/Wickede (EDLW)

    Taf: TAF EDLW 162300Z NIL=

    Metar: METAR EDLW 170220Z AUTO 07007KT 9000 // NCD 01/M01 Q1030=

  • Stuttgart/Echterdingen (EDDS)

    Taf: TAF EDDS 162300Z 1700/1724 02007KT CAVOK PROB30 TEMPO 1709/1720 06015G25KT=

    Metar: METAR EDDS 170250Z VRB01KT 9999 FEW022 M00/M01 Q1026=

  • Basel-Mühlhausen (LFSB)

    Taf: TAF LFSB 162300Z 1700/1724 VRB03KT 6000 FEW020 BECMG 1700/1702 3000 BR OVC008 TEMPO 1701/1709 0500 FG VV/// BECMG 1710/1713 35006KT CAVOK BECMG 1715/1717 VRB03KT PROB30 TEMPO 1719/1724 MIFG=

    Metar: METAR LFSB 170230Z AUTO 00000KT 5000 BR FEW003 OVC025 01/01 Q1025 TEMPO 0500 FG VV///=

  • Lille (LFQQ)

    Taf: TAF LFQQ 162300Z 1700/1806 05006KT 4000 BR OVC006 BECMG 1700/1702 1500 BR OVC003 TEMPO 1702/1707 0300 FG VV/// BECMG 1707/1710 CAVOK=

    Metar: METAR LFQQ 170230Z AUTO 06006KT 1300 1000 R26/1500D R08/1300U BR VV/// 04/04 Q1027 TEMPO 0300 FG=

  • Paris/Charles de Gaulle (LFPG)

    Taf: TAF AMD LFPG 170241Z 1702/1806 08005KT 3000 BR BKN008 TX08/1713Z TN01/1805Z TEMPO 1702/1708 1500 BR BKN003 PROB40 TEMPO 1702/1707 0500 BCFG BKN001 BECMG 1708/1710 CAVOK=

    Metar: METAR LFPG 170230Z 10004KT 2000 0600S R27L/0450D R09R/P2000 R26R/0375N R08L/0700D R26L/0600N R08R/0550N R27R/1500D R09L/P2000 PRFG BR SCT001 BKN007 03/02 Q1025 NOSIG=

  • Paderborn/Lippstadt (EDLP)

    Taf: TAF EDLP 162300Z 1700/1724 11009KT CAVOK=

    Metar: METAR EDLP 170220Z 11007KT CAVOK 02/M00 Q1030=

  • Paris/Le Bourget (LFPB)

    Taf: TAF LFPB 162300Z 1700/1724 05005KT 6000 NSC PROB40 TEMPO 1700/1708 3000 BR PROB30 TEMPO 1701/1707 0500 BCFG SCT002 BECMG 1708/1710 CAVOK=

    Metar: METAR LFPB 170230Z AUTO 07006KT 5000 BR OVC006 04/03 Q1025 TEMPO 0500 BCFG SCT002=

  • Rotterdam (EHRD)

    Taf: TAF EHRD 162313Z 1700/1806 09005KT 4000 BR NSC BECMG 1700/1703 7000 NSW BECMG 1708/1711 09012KT CAVOK BECMG 1803/1806 06007KT=

    Metar: METAR EHRD 170225Z AUTO 08005KT 9999 NCD 03/01 Q1029 NOSIG=

  • Zürich/Kloten (LSZH)

    Taf: TAF LSZH 170225Z 1703/1809 05004KT 8000 FEW017 OVC019 TX06/1715Z TN02/1723Z TN04/1802Z BECMG 1708/1710 06010KT BECMG 1710/1714 9999 SCT020 PROB40 1714/1721 CAVOK BECMG 1718/1721 02005KT BECMG 1721/1724 BKN012=

    Metar: METAR LSZH 170250Z VRB03KT 9999 FEW016 BKN019 04/00 Q1025 NOSIG=

  • Oostende/Intl (EBOS)

    Taf: TAF EBOS 162300Z 1700/1806 11006KT 3500 BR BKN005 TEMPO 1700/1708 0500 FG BKN002 PROB30 TEMPO 1700/1706 0200 FG BKN001 BECMG 1708/1710 7000 NSW SCT008=

    Metar: METAR EBOS 170220Z 12005KT 080V140 0200 R08/0500N R26/0550N FG SCT001 04/03 Q1028 NOSIG=

  • Paris/Orly (LFPO)

    Taf: TAF LFPO 162300Z 1700/1806 09005KT 6000 BKN012 TEMPO 1700/1709 3000 BR BKN008 PROB30 TEMPO 1706/1709 0400 FG VV/// BECMG 1710/1712 CAVOK=

    Metar: METAR LFPO 170230Z 12007KT 4500 BR OVC008 05/03 Q1025 NOSIG=

  • Beauvais (LFOB)

    Taf: TAF AMD LFOB 170018Z 1700/1724 07005KT 4000 BR OVC004 BECMG 1700/1702 NSC TEMPO 1702/1705 0300 FG VV/// BECMG 1705/1707 CAVOK=

    Metar: METAR LFOB 170230Z AUTO 08004KT 3200 BR OVC002 03/03 Q1025 TEMPO 0300 FG VV///=

  • Münster/Intl (EDDG)

    Taf: TAF EDDG 162300Z 1700/1724 08006KT CAVOK=

    Metar: METAR EDDG 170250Z 08003KT 020V130 CAVOK 04/00 Q1031 NOSIG=

  • Illesheim (ETIK)

    Taf: TAF AMD ETIK 161701Z 1617/1720 10009KT 9999 FEW020 QNH3033INS BECMG 1622/1623 08012G18KT 8000 BR SKC QNH3035INS BECMG 1708/1709 09015G20KT 9999 NSW FEW015 QNH3034INS TX09/1714Z TNM03/1704Z LAST NO AMDS AFT 1617 NEXT 1822=

    Metar: METAR ETIK 170156Z AUTO 00000KT 6000 BR CLR M03/M03 A3040 RMK AO2 SLP311 T10301030 FZRANO $=

  • Duebendorf (LSMD)

    Taf: TAF LSMD 161625Z 1617/1723 VRB03KT 9999 OVC020 PROB40 1620/1709 OVC013 PROB40 1714/1719 CAVOK PROB40 1719/1723 BKN013=

    Metar: METAR LSMD 170250Z AUTO 08006KT 030V110 9999NDV OVC017 04/00 Q1025 RMK=

  • Villacoublay (LFPV)

    Taf: TAF LFPV 170200Z 1703/1803 09008KT 5000 BR OVC007 PROB30 TEMPO 1703/1707 0800 FG BECMG 1707/1710 CAVOK=

    Metar: METAR LFPV 170230Z AUTO 10005KT 060V130 5000 BR OVC006 04/03 Q1024 TEMPO 0800 FG=

  • Payerne (LSMP)

    Taf: TAF LSMP 161625Z 1617/1723 04005KT 5000 BR OVC010 PROB40 TEMPO 1622/1706 2500=

    Metar: METAR LSMP 170250Z AUTO 06004KT 020V080 6000NDV OVC020 04/02 Q1023 RMK=

  • Amsterdam/Schipol (EHAM)

    Taf: TAF EHAM 162314Z 1700/1806 09005KT CAVOK PROB30 1702/1709 6000 BECMG 1708/1711 09012KT BECMG 1803/1806 06007KT=

    Metar: METAR EHAM 170225Z 09008KT CAVOK 04/02 Q1030 NOSIG=

  • Emmen (LSME)

    Taf: TAF LSME 161625Z 1617/1723 04006KT 9999 OVC016 PROB40 1620/1709 OVC011 PROB30 1714/1719 CAVOK PROB40 1719/1723 BKN010=

    Metar: METAR LSME 170250Z AUTO 01003KT 330V070 9999NDV BKN018 OVC022 04/01 Q1024 RMK=

  • Friedrichshafen (EDNY)

    Taf: TAF EDNY 162300Z 1700/1724 03008KT 9999 SCT020 TEMPO 1700/1708 4000 BR BKN009=

    Metar: METAR EDNY 170220Z AUTO 07004KT 9999 // OVC021/// 03/M00 Q1025=

  • Alpnach (LSMA)

    Taf: TAF AMD LSMA 162053Z 1620/1723 VRB03KT 9999 FEW014 OVC020 PROB30 1623/1709 OVC013 PROB40 1714/1719 CAVOK PROB40 1719/1723 BKN012=

    Metar: METAR LSMA 170250Z AUTO 06007KT 020V100 9999NDV OVC023 05/01 Q1024 RMK=

  • Meiringen (LSMM)

    Taf: TAF LSMM 161625Z 1617/1723 05016KT 9999 BKN017 PROB40 1617/1708 OVC010 BECMG 1618/1620 07005KT BECMG 1710/1713 07015KT PROB40 1712/1720 CAVOK PROB30 TEMPO 1714/1720 08018G28KT=

    Metar: METAR LSMM 170250Z AUTO 11005KT 060V140 9999NDV OVC019 04/01 Q1023 RMK=

  • Nürnberg (EDDN)

    Taf: TAF EDDN 162300Z 1700/1724 10005KT CAVOK BECMG 1708/1710 09011KT TEMPO 1711/1714 09015G25KT=

    Metar: METAR EDDN 170250Z 08005KT 020V110 CAVOK 02/M01 Q1029=

  • Rouen (LFOP)

    Taf: TAF LFOP 162300Z NIL=

    Metar: METAR LFOP 170230Z AUTO 10009KT 5000 BR OVC008 05/05 Q1024=

  • Evreux (LFOE)

    Taf: TAF LFOE 170200Z 1703/1803 09007KT CAVOK TEMPO 1703/1706 4000 BR SCT004=

    Metar: METAR LFOE 170230Z AUTO 09008KT 060V120 4300 BR OVC008 05/05 Q1024 TEMPO SCT004=

  • Erfurt/Bindersleben (EDDE)

    Taf: TAF EDDE 162300Z 1700/1724 06007KT CAVOK PROB40 TEMPO 1702/1706 2500 BCFG TEMPO 1706/1710 0400 FG BKN001 PROB30 TEMPO 1706/1708 FZFG=

    Metar: METAR EDDE 170250Z VRB01KT 6000 NSC M01/M01 Q1032=